sensor_id;sensor_type;location;lat;lon;timestamp;P1;durP1;ratioP1;P2;durP2;ratioP2
40929;SDS011;26659;47.962;21.652;2022-08-25T00:00:31;14.10;;;4.53;;
40929;SDS011;26659;47.962;21.652;2022-08-25T00:02:57;8.18;;;3.08;;
40929;SDS011;26659;47.962;21.652;2022-08-25T00:05:23;14.00;;;5.20;;
40929;SDS011;26659;47.962;21.652;2022-08-25T00:07:51;13.45;;;4.32;;
40929;SDS011;26659;47.962;21.652;2022-08-25T00:10:16;13.35;;;4.22;;
40929;SDS011;26659;47.962;21.652;2022-08-25T00:12:42;15.23;;;4.40;;
40929;SDS011;26659;47.962;21.652;2022-08-25T00:15:07;14.13;;;4.03;;
40929;SDS011;26659;47.962;21.652;2022-08-25T00:17:33;9.67;;;3.67;;
40929;SDS011;26659;47.962;21.652;2022-08-25T00:19:59;14.80;;;4.30;;
40929;SDS011;26659;47.962;21.652;2022-08-25T00:22:24;10.60;;;3.30;;
40929;SDS011;26659;47.962;21.652;2022-08-25T00:24:50;9.80;;;3.47;;
40929;SDS011;26659;47.962;21.652;2022-08-25T00:27:15;10.98;;;3.75;;
40929;SDS011;26659;47.962;21.652;2022-08-25T00:29:42;11.87;;;3.43;;
40929;SDS011;26659;47.962;21.652;2022-08-25T00:32:07;9.00;;;3.40;;
40929;SDS011;26659;47.962;21.652;2022-08-25T00:34:34;13.40;;;3.87;;
40929;SDS011;26659;47.962;21.652;2022-08-25T00:37:03;17.60;;;3.13;;
40929;SDS011;26659;47.962;21.652;2022-08-25T00:39:31;12.73;;;4.05;;
40929;SDS011;26659;47.962;21.652;2022-08-25T00:41:57;17.58;;;3.83;;
40929;SDS011;26659;47.962;21.652;2022-08-25T00:44:24;12.70;;;3.50;;
40929;SDS011;26659;47.962;21.652;2022-08-25T00:46:52;16.20;;;3.80;;
40929;SDS011;26659;47.962;21.652;2022-08-25T00:49:28;11.52;;;3.75;;
40929;SDS011;26659;47.962;21.652;2022-08-25T00:52:05;17.83;;;3.83;;
40929;SDS011;26659;47.962;21.652;2022-08-25T00:54:37;22.07;;;5.13;;
40929;SDS011;26659;47.962;21.652;2022-08-25T00:57:05;10.40;;;4.30;;
40929;SDS011;26659;47.962;21.652;2022-08-25T00:59:33;17.50;;;4.40;;
40929;SDS011;26659;47.962;21.652;2022-08-25T01:01:59;13.97;;;4.30;;
40929;SDS011;26659;47.962;21.652;2022-08-25T01:04:25;15.32;;;4.60;;
40929;SDS011;26659;47.962;21.652;2022-08-25T01:06:51;13.20;;;4.63;;
40929;SDS011;26659;47.962;21.652;2022-08-25T01:09:19;18.45;;;4.03;;
40929;SDS011;26659;47.962;21.652;2022-08-25T01:11:45;17.00;;;3.63;;
40929;SDS011;26659;47.962;21.652;2022-08-25T01:14:16;14.90;;;3.83;;
40929;SDS011;26659;47.962;21.652;2022-08-25T01:16:43;12.50;;;4.47;;
40929;SDS011;26659;47.962;21.652;2022-08-25T01:19:09;14.00;;;3.90;;
40929;SDS011;26659;47.962;21.652;2022-08-25T01:21:39;15.20;;;3.80;;
40929;SDS011;26659;47.962;21.652;2022-08-25T01:24:10;19.20;;;3.70;;
40929;SDS011;26659;47.962;21.652;2022-08-25T01:26:45;18.83;;;4.17;;
40929;SDS011;26659;47.962;21.652;2022-08-25T01:29:10;15.77;;;4.53;;
40929;SDS011;26659;47.962;21.652;2022-08-25T01:31:45;17.63;;;3.80;;
40929;SDS011;26659;47.962;21.652;2022-08-25T01:34:15;13.23;;;4.47;;
40929;SDS011;26659;47.962;21.652;2022-08-25T01:36:43;12.23;;;4.25;;
40929;SDS011;26659;47.962;21.652;2022-08-25T01:41:48;15.70;;;3.50;;
40929;SDS011;26659;47.962;21.652;2022-08-25T01:44:24;15.03;;;3.77;;
40929;SDS011;26659;47.962;21.652;2022-08-25T01:46:50;13.93;;;3.85;;
40929;SDS011;26659;47.962;21.652;2022-08-25T01:51:43;19.30;;;3.83;;
40929;SDS011;26659;47.962;21.652;2022-08-25T01:54:13;9.47;;;3.60;;
40929;SDS011;26659;47.962;21.652;2022-08-25T01:56:39;12.30;;;3.80;;
40929;SDS011;26659;47.962;21.652;2022-08-25T01:59:04;18.55;;;4.18;;
40929;SDS011;26659;47.962;21.652;2022-08-25T02:01:30;15.45;;;4.75;;
40929;SDS011;26659;47.962;21.652;2022-08-25T02:03:56;16.20;;;4.15;;
40929;SDS011;26659;47.962;21.652;2022-08-25T02:06:26;18.25;;;3.30;;
40929;SDS011;26659;47.962;21.652;2022-08-25T02:08:57;18.25;;;4.85;;
40929;SDS011;26659;47.962;21.652;2022-08-25T02:11:26;14.05;;;4.10;;
40929;SDS011;26659;47.962;21.652;2022-08-25T02:13:52;17.65;;;4.22;;
40929;SDS011;26659;47.962;21.652;2022-08-25T02:16:20;21.02;;;4.07;;
40929;SDS011;26659;47.962;21.652;2022-08-25T02:18:49;15.40;;;3.83;;
40929;SDS011;26659;47.962;21.652;2022-08-25T02:21:14;23.20;;;5.32;;
40929;SDS011;26659;47.962;21.652;2022-08-25T02:23:41;16.33;;;3.80;;
40929;SDS011;26659;47.962;21.652;2022-08-25T02:26:07;20.10;;;4.95;;
40929;SDS011;26659;47.962;21.652;2022-08-25T02:28:33;15.70;;;3.90;;
40929;SDS011;26659;47.962;21.652;2022-08-25T02:30:59;18.97;;;4.60;;
40929;SDS011;26659;47.962;21.652;2022-08-25T02:33:25;17.45;;;4.53;;
40929;SDS011;26659;47.962;21.652;2022-08-25T02:35:50;19.25;;;5.40;;
40929;SDS011;26659;47.962;21.652;2022-08-25T02:38:16;13.20;;;4.55;;
40929;SDS011;26659;47.962;21.652;2022-08-25T02:40:42;19.47;;;4.40;;
40929;SDS011;26659;47.962;21.652;2022-08-25T02:43:07;17.33;;;4.70;;
40929;SDS011;26659;47.962;21.652;2022-08-25T02:45:33;23.38;;;4.85;;
40929;SDS011;26659;47.962;21.652;2022-08-25T02:47:59;21.37;;;4.13;;
40929;SDS011;26659;47.962;21.652;2022-08-25T02:50:24;22.88;;;4.53;;
40929;SDS011;26659;47.962;21.652;2022-08-25T02:52:50;14.60;;;3.63;;
40929;SDS011;26659;47.962;21.652;2022-08-25T02:55:16;19.55;;;4.80;;
40929;SDS011;26659;47.962;21.652;2022-08-25T02:57:44;10.98;;;3.78;;
40929;SDS011;26659;47.962;21.652;2022-08-25T03:00:10;16.60;;;4.90;;
40929;SDS011;26659;47.962;21.652;2022-08-25T03:05:04;25.80;;;4.23;;
40929;SDS011;26659;47.962;21.652;2022-08-25T03:07:31;19.48;;;5.15;;
40929;SDS011;26659;47.962;21.652;2022-08-25T03:09:57;17.83;;;3.43;;
40929;SDS011;26659;47.962;21.652;2022-08-25T03:12:22;26.88;;;4.72;;
40929;SDS011;26659;47.962;21.652;2022-08-25T03:14:48;18.15;;;4.45;;
40929;SDS011;26659;47.962;21.652;2022-08-25T03:17:13;25.10;;;4.65;;
40929;SDS011;26659;47.962;21.652;2022-08-25T03:19:39;15.20;;;3.20;;
40929;SDS011;26659;47.962;21.652;2022-08-25T03:22:04;17.43;;;4.13;;
40929;SDS011;26659;47.962;21.652;2022-08-25T03:24:30;18.97;;;4.30;;
40929;SDS011;26659;47.962;21.652;2022-08-25T03:26:56;20.15;;;5.65;;
40929;SDS011;26659;47.962;21.652;2022-08-25T03:29:22;19.40;;;4.20;;
40929;SDS011;26659;47.962;21.652;2022-08-25T03:31:52;21.00;;;5.07;;
40929;SDS011;26659;47.962;21.652;2022-08-25T03:34:19;17.00;;;4.10;;
40929;SDS011;26659;47.962;21.652;2022-08-25T03:36:47;18.23;;;5.20;;
40929;SDS011;26659;47.962;21.652;2022-08-25T03:39:15;20.65;;;5.53;;
40929;SDS011;26659;47.962;21.652;2022-08-25T03:41:42;16.73;;;4.60;;
40929;SDS011;26659;47.962;21.652;2022-08-25T03:44:07;25.30;;;4.40;;
40929;SDS011;26659;47.962;21.652;2022-08-25T03:46:36;25.63;;;5.03;;
40929;SDS011;26659;47.962;21.652;2022-08-25T03:49:05;17.77;;;4.47;;
40929;SDS011;26659;47.962;21.652;2022-08-25T03:51:33;16.17;;;4.33;;
40929;SDS011;26659;47.962;21.652;2022-08-25T03:54:01;15.45;;;5.35;;
40929;SDS011;26659;47.962;21.652;2022-08-25T03:58:53;13.20;;;4.45;;
40929;SDS011;26659;47.962;21.652;2022-08-25T04:01:20;11.60;;;4.60;;
40929;SDS011;26659;47.962;21.652;2022-08-25T04:03:46;30.23;;;6.00;;
40929;SDS011;26659;47.962;21.652;2022-08-25T04:06:12;16.88;;;4.38;;
40929;SDS011;26659;47.962;21.652;2022-08-25T04:08:39;22.03;;;5.47;;
40929;SDS011;26659;47.962;21.652;2022-08-25T04:11:06;16.73;;;4.27;;
40929;SDS011;26659;47.962;21.652;2022-08-25T04:13:37;21.00;;;6.20;;
40929;SDS011;26659;47.962;21.652;2022-08-25T04:16:09;17.55;;;4.60;;
40929;SDS011;26659;47.962;21.652;2022-08-25T04:18:37;12.57;;;3.67;;
40929;SDS011;26659;47.962;21.652;2022-08-25T04:21:03;23.50;;;5.70;;
40929;SDS011;26659;47.962;21.652;2022-08-25T04:23:30;19.77;;;6.90;;
40929;SDS011;26659;47.962;21.652;2022-08-25T04:25:56;27.95;;;6.80;;
40929;SDS011;26659;47.962;21.652;2022-08-25T04:28:22;17.13;;;5.33;;
40929;SDS011;26659;47.962;21.652;2022-08-25T04:30:47;17.93;;;5.50;;
40929;SDS011;26659;47.962;21.652;2022-08-25T04:33:13;30.00;;;5.27;;
40929;SDS011;26659;47.962;21.652;2022-08-25T04:35:38;20.40;;;5.10;;
40929;SDS011;26659;47.962;21.652;2022-08-25T04:38:05;22.05;;;5.55;;
40929;SDS011;26659;47.962;21.652;2022-08-25T04:40:31;21.50;;;5.75;;
40929;SDS011;26659;47.962;21.652;2022-08-25T04:42:56;28.23;;;6.50;;
40929;SDS011;26659;47.962;21.652;2022-08-25T04:47:47;33.15;;;5.57;;
40929;SDS011;26659;47.962;21.652;2022-08-25T04:50:12;34.40;;;6.50;;
40929;SDS011;26659;47.962;21.652;2022-08-25T04:52:38;33.60;;;5.60;;
40929;SDS011;26659;47.962;21.652;2022-08-25T04:55:04;22.00;;;5.40;;
40929;SDS011;26659;47.962;21.652;2022-08-25T04:57:29;18.50;;;5.00;;
40929;SDS011;26659;47.962;21.652;2022-08-25T04:59:55;25.85;;;4.45;;
40929;SDS011;26659;47.962;21.652;2022-08-25T05:02:21;30.10;;;6.20;;
40929;SDS011;26659;47.962;21.652;2022-08-25T05:04:49;28.90;;;5.47;;
40929;SDS011;26659;47.962;21.652;2022-08-25T05:09:41;22.83;;;5.30;;
40929;SDS011;26659;47.962;21.652;2022-08-25T05:12:07;30.63;;;4.33;;
40929;SDS011;26659;47.962;21.652;2022-08-25T05:14:32;16.85;;;3.35;;
40929;SDS011;26659;47.962;21.652;2022-08-25T05:16:58;29.30;;;3.70;;
40929;SDS011;26659;47.962;21.652;2022-08-25T05:19:24;26.33;;;4.13;;
40929;SDS011;26659;47.962;21.652;2022-08-25T05:21:50;22.93;;;3.70;;
40929;SDS011;26659;47.962;21.652;2022-08-25T05:24:16;24.90;;;4.37;;
40929;SDS011;26659;47.962;21.652;2022-08-25T05:26:41;29.90;;;4.70;;
40929;SDS011;26659;47.962;21.652;2022-08-25T05:29:07;27.63;;;4.97;;
40929;SDS011;26659;47.962;21.652;2022-08-25T05:31:34;33.15;;;4.13;;
40929;SDS011;26659;47.962;21.652;2022-08-25T05:34:03;28.50;;;4.05;;
40929;SDS011;26659;47.962;21.652;2022-08-25T05:38:56;29.00;;;4.10;;
40929;SDS011;26659;47.962;21.652;2022-08-25T05:41:24;21.00;;;2.60;;
40929;SDS011;26659;47.962;21.652;2022-08-25T05:43:52;26.10;;;3.50;;
40929;SDS011;26659;47.962;21.652;2022-08-25T05:46:18;18.75;;;3.05;;
40929;SDS011;26659;47.962;21.652;2022-08-25T05:48:44;22.05;;;3.95;;
40929;SDS011;26659;47.962;21.652;2022-08-25T05:51:10;25.40;;;3.90;;
40929;SDS011;26659;47.962;21.652;2022-08-25T05:53:37;25.75;;;4.25;;
40929;SDS011;26659;47.962;21.652;2022-08-25T05:56:05;24.30;;;3.30;;
40929;SDS011;26659;47.962;21.652;2022-08-25T06:00:57;20.80;;;3.05;;
40929;SDS011;26659;47.962;21.652;2022-08-25T06:03:47;18.45;;;3.80;;
40929;SDS011;26659;47.962;21.652;2022-08-25T06:06:13;21.95;;;4.75;;
40929;SDS011;26659;47.962;21.652;2022-08-25T06:11:05;31.30;;;4.40;;
40929;SDS011;26659;47.962;21.652;2022-08-25T06:13:31;18.00;;;2.45;;
40929;SDS011;26659;47.962;21.652;2022-08-25T06:15:57;39.40;;;3.30;;
40929;SDS011;26659;47.962;21.652;2022-08-25T06:18:23;21.80;;;3.07;;
40929;SDS011;26659;47.962;21.652;2022-08-25T06:20:49;21.60;;;3.35;;
40929;SDS011;26659;47.962;21.652;2022-08-25T06:23:15;17.50;;;2.97;;
40929;SDS011;26659;47.962;21.652;2022-08-25T06:25:47;22.83;;;2.88;;
40929;SDS011;26659;47.962;21.652;2022-08-25T06:28:14;25.20;;;2.78;;
40929;SDS011;26659;47.962;21.652;2022-08-25T06:30:39;21.53;;;2.67;;
40929;SDS011;26659;47.962;21.652;2022-08-25T06:33:05;26.50;;;3.47;;
40929;SDS011;26659;47.962;21.652;2022-08-25T06:35:31;22.33;;;3.40;;
40929;SDS011;26659;47.962;21.652;2022-08-25T06:37:56;22.57;;;2.87;;
40929;SDS011;26659;47.962;21.652;2022-08-25T06:40:22;15.33;;;2.47;;
40929;SDS011;26659;47.962;21.652;2022-08-25T06:42:48;20.40;;;3.40;;
40929;SDS011;26659;47.962;21.652;2022-08-25T06:45:13;22.27;;;3.43;;
40929;SDS011;26659;47.962;21.652;2022-08-25T06:47:39;27.80;;;3.63;;
40929;SDS011;26659;47.962;21.652;2022-08-25T06:50:05;12.77;;;2.43;;
40929;SDS011;26659;47.962;21.652;2022-08-25T06:52:30;19.10;;;2.97;;
40929;SDS011;26659;47.962;21.652;2022-08-25T06:54:56;22.67;;;3.10;;
40929;SDS011;26659;47.962;21.652;2022-08-25T06:57:21;18.73;;;2.20;;
40929;SDS011;26659;47.962;21.652;2022-08-25T06:59:47;17.23;;;2.50;;
40929;SDS011;26659;47.962;21.652;2022-08-25T07:02:13;22.43;;;3.33;;
40929;SDS011;26659;47.962;21.652;2022-08-25T07:04:38;16.57;;;2.80;;
40929;SDS011;26659;47.962;21.652;2022-08-25T07:07:04;20.57;;;3.27;;
40929;SDS011;26659;47.962;21.652;2022-08-25T07:09:29;17.10;;;3.80;;
40929;SDS011;26659;47.962;21.652;2022-08-25T07:11:55;10.40;;;1.80;;
40929;SDS011;26659;47.962;21.652;2022-08-25T07:14:21;20.50;;;2.30;;
40929;SDS011;26659;47.962;21.652;2022-08-25T07:16:47;19.60;;;2.85;;
40929;SDS011;26659;47.962;21.652;2022-08-25T07:19:13;16.55;;;2.42;;
40929;SDS011;26659;47.962;21.652;2022-08-25T07:21:39;13.73;;;2.87;;
40929;SDS011;26659;47.962;21.652;2022-08-25T07:24:07;21.23;;;2.53;;
40929;SDS011;26659;47.962;21.652;2022-08-25T07:26:35;16.65;;;2.72;;
40929;SDS011;26659;47.962;21.652;2022-08-25T07:29:12;24.45;;;2.33;;
40929;SDS011;26659;47.962;21.652;2022-08-25T07:31:43;18.50;;;4.25;;
40929;SDS011;26659;47.962;21.652;2022-08-25T07:34:09;13.13;;;2.77;;
40929;SDS011;26659;47.962;21.652;2022-08-25T07:36:53;17.08;;;2.30;;
40929;SDS011;26659;47.962;21.652;2022-08-25T07:39:19;17.20;;;3.85;;
40929;SDS011;26659;47.962;21.652;2022-08-25T07:41:45;15.27;;;2.42;;
40929;SDS011;26659;47.962;21.652;2022-08-25T07:44:11;14.30;;;2.30;;
40929;SDS011;26659;47.962;21.652;2022-08-25T07:46:37;23.33;;;2.83;;
40929;SDS011;26659;47.962;21.652;2022-08-25T07:49:03;23.27;;;4.68;;
40929;SDS011;26659;47.962;21.652;2022-08-25T07:51:29;23.00;;;2.58;;
40929;SDS011;26659;47.962;21.652;2022-08-25T07:53:55;10.70;;;1.90;;
40929;SDS011;26659;47.962;21.652;2022-08-25T07:56:20;19.03;;;3.17;;
40929;SDS011;26659;47.962;21.652;2022-08-25T07:58:46;14.57;;;2.50;;
40929;SDS011;26659;47.962;21.652;2022-08-25T08:01:15;24.03;;;3.30;;
40929;SDS011;26659;47.962;21.652;2022-08-25T08:03:42;17.27;;;2.50;;
40929;SDS011;26659;47.962;21.652;2022-08-25T08:06:12;22.53;;;2.30;;
40929;SDS011;26659;47.962;21.652;2022-08-25T08:08:39;13.52;;;2.13;;
40929;SDS011;26659;47.962;21.652;2022-08-25T08:11:19;22.45;;;2.85;;
40929;SDS011;26659;47.962;21.652;2022-08-25T08:13:47;19.45;;;2.20;;
40929;SDS011;26659;47.962;21.652;2022-08-25T08:16:14;16.20;;;2.10;;
40929;SDS011;26659;47.962;21.652;2022-08-25T08:18:41;21.75;;;2.65;;
40929;SDS011;26659;47.962;21.652;2022-08-25T08:21:12;14.23;;;2.08;;
40929;SDS011;26659;47.962;21.652;2022-08-25T08:23:37;20.77;;;2.30;;
40929;SDS011;26659;47.962;21.652;2022-08-25T08:26:03;18.77;;;2.72;;
40929;SDS011;26659;47.962;21.652;2022-08-25T08:28:29;16.88;;;3.30;;
40929;SDS011;26659;47.962;21.652;2022-08-25T08:30:55;19.57;;;2.77;;
40929;SDS011;26659;47.962;21.652;2022-08-25T08:33:21;13.88;;;2.20;;
40929;SDS011;26659;47.962;21.652;2022-08-25T08:35:54;15.52;;;2.13;;
40929;SDS011;26659;47.962;21.652;2022-08-25T08:38:23;16.40;;;2.08;;
40929;SDS011;26659;47.962;21.652;2022-08-25T08:40:58;14.73;;;1.83;;
40929;SDS011;26659;47.962;21.652;2022-08-25T08:43:50;17.95;;;1.88;;
40929;SDS011;26659;47.962;21.652;2022-08-25T08:46:20;24.38;;;2.97;;
40929;SDS011;26659;47.962;21.652;2022-08-25T08:48:59;22.30;;;2.65;;
40929;SDS011;26659;47.962;21.652;2022-08-25T08:51:30;16.17;;;1.92;;
40929;SDS011;26659;47.962;21.652;2022-08-25T08:54:09;16.65;;;1.98;;
40929;SDS011;26659;47.962;21.652;2022-08-25T08:56:43;18.02;;;3.63;;
40929;SDS011;26659;47.962;21.652;2022-08-25T08:59:21;14.23;;;1.98;;
40929;SDS011;26659;47.962;21.652;2022-08-25T09:01:52;18.27;;;2.78;;
40929;SDS011;26659;47.962;21.652;2022-08-25T09:07:28;14.52;;;2.08;;
40929;SDS011;26659;47.962;21.652;2022-08-25T09:09:59;12.15;;;1.90;;
40929;SDS011;26659;47.962;21.652;2022-08-25T09:15:12;22.90;;;2.20;;
40929;SDS011;26659;47.962;21.652;2022-08-25T09:18:16;17.10;;;1.77;;
40929;SDS011;26659;47.962;21.652;2022-08-25T09:26:40;15.75;;;2.30;;
40929;SDS011;26659;47.962;21.652;2022-08-25T09:29:17;22.33;;;2.28;;
40929;SDS011;26659;47.962;21.652;2022-08-25T09:31:46;19.15;;;2.60;;
40929;SDS011;26659;47.962;21.652;2022-08-25T09:34:19;14.00;;;1.48;;
40929;SDS011;26659;47.962;21.652;2022-08-25T09:36:47;8.65;;;1.77;;
40929;SDS011;26659;47.962;21.652;2022-08-25T09:39:16;16.08;;;2.53;;
40929;SDS011;26659;47.962;21.652;2022-08-25T09:44:31;25.45;;;1.83;;
40929;SDS011;26659;47.962;21.652;2022-08-25T09:49:45;24.05;;;2.53;;
40929;SDS011;26659;47.962;21.652;2022-08-25T09:52:21;23.90;;;2.33;;
40929;SDS011;26659;47.962;21.652;2022-08-25T09:54:56;13.95;;;2.13;;
40929;SDS011;26659;47.962;21.652;2022-08-25T10:00:08;15.57;;;1.90;;
40929;SDS011;26659;47.962;21.652;2022-08-25T10:02:41;18.20;;;2.03;;
40929;SDS011;26659;47.962;21.652;2022-08-25T10:05:21;17.10;;;1.52;;
40929;SDS011;26659;47.962;21.652;2022-08-25T10:07:58;17.15;;;2.15;;
40929;SDS011;26659;47.962;21.652;2022-08-25T10:10:34;17.48;;;2.10;;
40929;SDS011;26659;47.962;21.652;2022-08-25T10:13:11;15.02;;;1.80;;
40929;SDS011;26659;47.962;21.652;2022-08-25T10:15:45;16.90;;;1.90;;
40929;SDS011;26659;47.962;21.652;2022-08-25T10:18:23;18.02;;;1.52;;
40929;SDS011;26659;47.962;21.652;2022-08-25T10:21:01;8.88;;;1.38;;
40929;SDS011;26659;47.962;21.652;2022-08-25T10:23:34;19.35;;;2.97;;
40929;SDS011;26659;47.962;21.652;2022-08-25T10:26:04;17.20;;;2.28;;
40929;SDS011;26659;47.962;21.652;2022-08-25T10:28:51;16.27;;;2.30;;
40929;SDS011;26659;47.962;21.652;2022-08-25T10:31:26;15.85;;;1.70;;
40929;SDS011;26659;47.962;21.652;2022-08-25T10:39:12;15.63;;;2.30;;
40929;SDS011;26659;47.962;21.652;2022-08-25T10:41:59;13.43;;;1.70;;
40929;SDS011;26659;47.962;21.652;2022-08-25T10:50:28;19.25;;;2.30;;
40929;SDS011;26659;47.962;21.652;2022-08-25T11:04:07;21.33;;;2.75;;
40929;SDS011;26659;47.962;21.652;2022-08-25T11:06:43;23.25;;;2.28;;
40929;SDS011;26659;47.962;21.652;2022-08-25T11:09:17;18.65;;;2.85;;
40929;SDS011;26659;47.962;21.652;2022-08-25T11:15:25;19.55;;;1.90;;
40929;SDS011;26659;47.962;21.652;2022-08-25T11:17:28;20.00;;;2.13;;
40929;SDS011;26659;47.962;21.652;2022-08-25T11:20:04;20.20;;;2.00;;
40929;SDS011;26659;47.962;21.652;2022-08-25T11:25:56;33.95;;;2.10;;
40929;SDS011;26659;47.962;21.652;2022-08-25T11:30:46;23.13;;;2.05;;
40929;SDS011;26659;47.962;21.652;2022-08-25T11:33:15;23.58;;;1.95;;
40929;SDS011;26659;47.962;21.652;2022-08-25T11:35:43;22.63;;;2.50;;
40929;SDS011;26659;47.962;21.652;2022-08-25T11:40:58;21.77;;;2.35;;
40929;SDS011;26659;47.962;21.652;2022-08-25T11:48:54;20.60;;;1.85;;
40929;SDS011;26659;47.962;21.652;2022-08-25T11:51:32;14.38;;;1.60;;
40929;SDS011;26659;47.962;21.652;2022-08-25T11:57:31;23.88;;;2.50;;
40929;SDS011;26659;47.962;21.652;2022-08-25T12:05:00;17.73;;;2.05;;
40929;SDS011;26659;47.962;21.652;2022-08-25T12:07:29;17.35;;;2.80;;
40929;SDS011;26659;47.962;21.652;2022-08-25T12:10:25;17.77;;;2.10;;
40929;SDS011;26659;47.962;21.652;2022-08-25T12:13:25;14.07;;;1.40;;
40929;SDS011;26659;47.962;21.652;2022-08-25T12:16:06;21.13;;;1.77;;
40929;SDS011;26659;47.962;21.652;2022-08-25T12:19:21;32.35;;;3.28;;
40929;SDS011;26659;47.962;21.652;2022-08-25T12:21:57;17.25;;;1.48;;
40929;SDS011;26659;47.962;21.652;2022-08-25T19:56:14;16.80;;;2.10;;
40929;SDS011;26659;47.962;21.652;2022-08-25T19:58:40;21.83;;;3.75;;
40929;SDS011;26659;47.962;21.652;2022-08-25T20:01:05;28.08;;;3.38;;
40929;SDS011;26659;47.962;21.652;2022-08-25T20:03:31;18.50;;;2.35;;
40929;SDS011;26659;47.962;21.652;2022-08-25T20:05:57;32.05;;;3.40;;
40929;SDS011;26659;47.962;21.652;2022-08-25T20:08:22;31.27;;;3.35;;
40929;SDS011;26659;47.962;21.652;2022-08-25T20:10:48;25.08;;;3.42;;
40929;SDS011;26659;47.962;21.652;2022-08-25T20:13:13;33.53;;;5.35;;
40929;SDS011;26659;47.962;21.652;2022-08-25T20:15:39;28.88;;;2.78;;
40929;SDS011;26659;47.962;21.652;2022-08-25T20:18:05;35.80;;;2.78;;
40929;SDS011;26659;47.962;21.652;2022-08-25T20:20:31;21.48;;;3.88;;
40929;SDS011;26659;47.962;21.652;2022-08-25T20:22:56;27.83;;;3.78;;
40929;SDS011;26659;47.962;21.652;2022-08-25T20:25:40;18.80;;;2.45;;
40929;SDS011;26659;47.962;21.652;2022-08-25T20:28:06;22.23;;;1.98;;
40929;SDS011;26659;47.962;21.652;2022-08-25T20:30:32;17.15;;;2.50;;
40929;SDS011;26659;47.962;21.652;2022-08-25T20:32:57;37.95;;;3.38;;
40929;SDS011;26659;47.962;21.652;2022-08-25T20:35:24;18.25;;;3.60;;
40929;SDS011;26659;47.962;21.652;2022-08-25T20:37:50;19.77;;;2.30;;
40929;SDS011;26659;47.962;21.652;2022-08-25T20:40:18;17.15;;;2.10;;
40929;SDS011;26659;47.962;21.652;2022-08-25T20:42:45;18.35;;;2.08;;
40929;SDS011;26659;47.962;21.652;2022-08-25T20:45:12;19.70;;;2.33;;
40929;SDS011;26659;47.962;21.652;2022-08-25T20:47:40;13.05;;;2.00;;
40929;SDS011;26659;47.962;21.652;2022-08-25T20:50:08;16.38;;;2.53;;
40929;SDS011;26659;47.962;21.652;2022-08-25T20:55:02;28.00;;;3.65;;
40929;SDS011;26659;47.962;21.652;2022-08-25T20:57:28;30.38;;;3.63;;
40929;SDS011;26659;47.962;21.652;2022-08-25T20:59:53;23.23;;;3.40;;
40929;SDS011;26659;47.962;21.652;2022-08-25T21:02:19;15.60;;;2.22;;
40929;SDS011;26659;47.962;21.652;2022-08-25T21:04:45;13.83;;;2.73;;
40929;SDS011;26659;47.962;21.652;2022-08-25T21:07:11;22.17;;;2.60;;
40929;SDS011;26659;47.962;21.652;2022-08-25T21:09:36;19.02;;;3.25;;
40929;SDS011;26659;47.962;21.652;2022-08-25T21:12:02;19.17;;;3.15;;
40929;SDS011;26659;47.962;21.652;2022-08-25T21:14:31;22.10;;;3.25;;
40929;SDS011;26659;47.962;21.652;2022-08-25T21:19:24;29.47;;;4.90;;
40929;SDS011;26659;47.962;21.652;2022-08-25T21:21:50;10.00;;;1.73;;
40929;SDS011;26659;47.962;21.652;2022-08-25T21:24:18;22.33;;;2.60;;
40929;SDS011;26659;47.962;21.652;2022-08-25T21:26:48;14.52;;;2.30;;
40929;SDS011;26659;47.962;21.652;2022-08-25T21:29:15;15.68;;;2.67;;
40929;SDS011;26659;47.962;21.652;2022-08-25T21:31:42;33.55;;;3.67;;
40929;SDS011;26659;47.962;21.652;2022-08-25T21:34:09;21.05;;;2.80;;
40929;SDS011;26659;47.962;21.652;2022-08-25T21:36:35;16.85;;;1.92;;
40929;SDS011;26659;47.962;21.652;2022-08-25T21:39:00;15.27;;;2.22;;
40929;SDS011;26659;47.962;21.652;2022-08-25T21:41:27;19.88;;;2.05;;
40929;SDS011;26659;47.962;21.652;2022-08-25T21:43:55;11.55;;;1.98;;
40929;SDS011;26659;47.962;21.652;2022-08-25T21:46:22;17.58;;;2.30;;
40929;SDS011;26659;47.962;21.652;2022-08-25T21:48:49;19.65;;;2.17;;
40929;SDS011;26659;47.962;21.652;2022-08-25T21:51:20;13.63;;;2.38;;
40929;SDS011;26659;47.962;21.652;2022-08-25T21:53:47;14.15;;;2.38;;
40929;SDS011;26659;47.962;21.652;2022-08-25T21:56:15;18.20;;;2.40;;
40929;SDS011;26659;47.962;21.652;2022-08-25T21:58:44;15.85;;;2.15;;
40929;SDS011;26659;47.962;21.652;2022-08-25T22:01:12;19.88;;;2.60;;
40929;SDS011;26659;47.962;21.652;2022-08-25T22:03:39;11.68;;;2.47;;
40929;SDS011;26659;47.962;21.652;2022-08-25T22:06:06;8.05;;;2.22;;
40929;SDS011;26659;47.962;21.652;2022-08-25T22:08:33;9.07;;;2.45;;
40929;SDS011;26659;47.962;21.652;2022-08-25T22:11:00;9.57;;;2.60;;
40929;SDS011;26659;47.962;21.652;2022-08-25T22:13:26;22.67;;;2.40;;
40929;SDS011;26659;47.962;21.652;2022-08-25T22:15:52;12.43;;;1.98;;
40929;SDS011;26659;47.962;21.652;2022-08-25T22:18:19;12.45;;;2.05;;
40929;SDS011;26659;47.962;21.652;2022-08-25T22:20:45;13.03;;;1.80;;
40929;SDS011;26659;47.962;21.652;2022-08-25T22:23:10;11.43;;;2.03;;
40929;SDS011;26659;47.962;21.652;2022-08-25T22:25:38;13.02;;;2.08;;
40929;SDS011;26659;47.962;21.652;2022-08-25T22:30:29;13.67;;;2.00;;
40929;SDS011;26659;47.962;21.652;2022-08-25T22:32:55;10.88;;;2.10;;
40929;SDS011;26659;47.962;21.652;2022-08-25T22:35:22;10.93;;;1.95;;
40929;SDS011;26659;47.962;21.652;2022-08-25T22:37:48;12.48;;;1.65;;
40929;SDS011;26659;47.962;21.652;2022-08-25T22:40:14;10.75;;;1.90;;
40929;SDS011;26659;47.962;21.652;2022-08-25T22:42:39;10.30;;;2.22;;
40929;SDS011;26659;47.962;21.652;2022-08-25T22:45:06;7.00;;;2.38;;
40929;SDS011;26659;47.962;21.652;2022-08-25T22:47:33;10.82;;;2.05;;
40929;SDS011;26659;47.962;21.652;2022-08-25T22:49:58;12.73;;;2.00;;
40929;SDS011;26659;47.962;21.652;2022-08-25T22:52:24;13.48;;;1.90;;
40929;SDS011;26659;47.962;21.652;2022-08-25T22:54:50;14.70;;;2.75;;
40929;SDS011;26659;47.962;21.652;2022-08-25T22:57:16;13.35;;;1.60;;
40929;SDS011;26659;47.962;21.652;2022-08-25T22:59:42;18.17;;;2.03;;
40929;SDS011;26659;47.962;21.652;2022-08-25T23:02:07;13.25;;;3.17;;
40929;SDS011;26659;47.962;21.652;2022-08-25T23:04:33;10.00;;;2.20;;
40929;SDS011;26659;47.962;21.652;2022-08-25T23:07:00;13.82;;;2.28;;
40929;SDS011;26659;47.962;21.652;2022-08-25T23:09:25;14.20;;;1.80;;
40929;SDS011;26659;47.962;21.652;2022-08-25T23:11:50;14.48;;;2.45;;
40929;SDS011;26659;47.962;21.652;2022-08-25T23:14:16;14.02;;;2.10;;
40929;SDS011;26659;47.962;21.652;2022-08-25T23:16:41;15.50;;;2.63;;
40929;SDS011;26659;47.962;21.652;2022-08-25T23:19:08;7.67;;;1.70;;
40929;SDS011;26659;47.962;21.652;2022-08-25T23:21:36;7.70;;;1.98;;
40929;SDS011;26659;47.962;21.652;2022-08-25T23:24:21;9.68;;;2.00;;
40929;SDS011;26659;47.962;21.652;2022-08-25T23:26:46;12.05;;;2.28;;
40929;SDS011;26659;47.962;21.652;2022-08-25T23:29:12;12.60;;;2.00;;
40929;SDS011;26659;47.962;21.652;2022-08-25T23:31:39;11.65;;;2.35;;
40929;SDS011;26659;47.962;21.652;2022-08-25T23:34:05;15.07;;;2.20;;
40929;SDS011;26659;47.962;21.652;2022-08-25T23:36:32;11.77;;;1.83;;